createdAt,value
2023-03-16T00:00:42.248Z,97.25
2023-03-16T00:02:22.758Z,97.34
2023-03-16T00:04:03.053Z,97.54
2023-03-16T00:05:43.462Z,97.65
2023-03-16T00:07:23.885Z,97.84
2023-03-16T00:09:04.332Z,98.15
2023-03-16T00:10:44.790Z,98.84
2023-03-16T00:12:25.242Z,99.13
2023-03-16T00:14:05.737Z,99.4
2023-03-16T00:15:46.157Z,99.55
2023-03-16T00:17:26.623Z,99.61
2023-03-16T00:19:07.094Z,99.51
2023-03-16T00:20:47.472Z,99.52
2023-03-16T00:22:27.906Z,99.57
2023-03-16T00:24:08.313Z,99.55
2023-03-16T00:25:48.706Z,99.42
2023-03-16T00:27:29.124Z,99.25
2023-03-16T00:29:09.539Z,99.19
2023-03-16T00:30:49.923Z,99.09
2023-03-16T00:32:30.449Z,99.02
2023-03-16T00:34:10.760Z,98.92
2023-03-16T00:35:51.234Z,98.97
2023-03-16T00:37:31.627Z,99
2023-03-16T00:39:11.981Z,98.98
2023-03-16T00:40:52.345Z,98.92
2023-03-16T00:42:32.784Z,98.68
2023-03-16T00:44:13.167Z,98.54
2023-03-16T00:45:53.621Z,98.33
2023-03-16T00:47:33.959Z,98.15
2023-03-16T00:49:14.292Z,98.06
2023-03-16T00:50:54.692Z,98.38
2023-03-16T00:52:35.061Z,98.54
2023-03-16T00:54:15.456Z,98.58
2023-03-16T00:55:55.855Z,98.78
2023-03-16T00:57:36.225Z,98.92
2023-03-16T00:59:16.582Z,98.92
2023-03-16T01:00:57.075Z,98.94
2023-03-16T01:02:37.402Z,98.76
2023-03-16T01:04:17.820Z,98.74
2023-03-16T01:05:58.172Z,98.84
2023-03-16T01:07:38.478Z,98.83
2023-03-16T01:09:18.964Z,98.92
2023-03-16T01:10:59.426Z,98.94
2023-03-16T01:12:39.872Z,99.01
2023-03-16T01:14:20.258Z,99.24
2023-03-16T01:16:00.601Z,99.34
2023-03-16T01:17:40.989Z,99.41
2023-03-16T01:19:21.306Z,99.44
2023-03-16T01:21:01.738Z,99.4
2023-03-16T01:22:42.122Z,99.34
2023-03-16T01:24:22.496Z,99.22
2023-03-16T01:26:02.907Z,99.06
2023-03-16T01:27:43.368Z,98.86
2023-03-16T01:29:23.737Z,98.95
2023-03-16T01:31:04.214Z,98.95
2023-03-16T01:32:44.688Z,98.86
2023-03-16T01:34:25.025Z,99.43
2023-03-16T01:36:05.515Z,99.79
2023-03-16T01:37:45.860Z,100
2023-03-16T01:39:26.252Z,100
2023-03-16T01:41:06.573Z,100
2023-03-16T01:42:47.011Z,100
2023-03-16T01:44:27.402Z,100
2023-03-16T01:46:07.889Z,100
2023-03-16T01:47:48.337Z,100
2023-03-16T01:49:28.714Z,100
2023-03-16T01:51:09.036Z,100
2023-03-16T01:52:49.469Z,100
2023-03-16T01:54:29.851Z,100
2023-03-16T01:56:10.310Z,100
2023-03-16T01:57:50.715Z,100
2023-03-16T01:59:31.086Z,100
2023-03-16T02:01:11.555Z,99.98
2023-03-16T02:02:51.918Z,99.95
2023-03-16T02:04:32.429Z,99.86
2023-03-16T02:06:12.772Z,99.57
2023-03-16T02:07:53.175Z,99.31
2023-03-16T02:09:33.622Z,98.79
2023-03-16T02:11:14.030Z,98.27
2023-03-16T02:12:54.519Z,97.61
2023-03-16T02:14:34.948Z,97.2
2023-03-16T02:16:15.493Z,97.03
2023-03-16T02:17:55.775Z,96.99
2023-03-16T02:19:36.256Z,97.06
2023-03-16T02:21:16.680Z,97.16
2023-03-16T02:22:57.056Z,97.34
2023-03-16T02:24:37.465Z,97.63
2023-03-16T02:26:17.889Z,98.05
2023-03-16T02:27:58.294Z,98.37
2023-03-16T02:29:38.678Z,98.5
2023-03-16T02:31:19.233Z,98.59
2023-03-16T02:32:59.617Z,98.74
2023-03-16T02:34:39.944Z,99.04
2023-03-16T02:36:20.348Z,99.28
2023-03-16T02:38:00.748Z,99.5
2023-03-16T02:39:41.210Z,99.52
2023-03-16T02:41:21.656Z,99.57
2023-03-16T02:43:02.048Z,99.82
2023-03-16T02:44:42.411Z,99.82
2023-03-16T02:46:22.857Z,100
2023-03-16T02:48:03.215Z,100
2023-03-16T02:49:43.577Z,100
2023-03-16T02:51:23.990Z,100
2023-03-16T02:53:04.422Z,99.99
2023-03-16T02:54:44.884Z,99.95
2023-03-16T02:56:25.359Z,99.98
2023-03-16T02:58:05.690Z,100
2023-03-16T02:59:46.072Z,99.96
2023-03-16T03:01:26.446Z,99.92
2023-03-16T03:03:06.852Z,99.81
2023-03-16T03:04:47.198Z,99.59
2023-03-16T03:06:27.509Z,99.55
2023-03-16T03:08:07.899Z,99.4
2023-03-16T03:09:48.340Z,99.18
2023-03-16T03:11:28.773Z,99.02
2023-03-16T03:13:09.231Z,98.82
2023-03-16T03:14:49.659Z,98.71
2023-03-16T03:16:30.204Z,98.53
2023-03-16T03:18:10.428Z,98.38
2023-03-16T03:19:50.847Z,98.33
2023-03-16T03:21:31.269Z,98.24
2023-03-16T03:23:11.786Z,98.11
2023-03-16T03:24:52.168Z,98.03
2023-03-16T03:26:32.651Z,97.94
2023-03-16T03:28:13.122Z,97.87
2023-03-16T03:29:53.547Z,98.09
2023-03-16T03:31:33.987Z,98.1
2023-03-16T03:33:14.378Z,97.97
2023-03-16T03:34:54.738Z,97.83
2023-03-16T03:36:35.169Z,98.03
2023-03-16T03:38:15.592Z,98.11
2023-03-16T03:39:56.055Z,98.1
2023-03-16T03:41:36.398Z,98.13
2023-03-16T03:43:16.700Z,98.03
2023-03-16T03:44:57.096Z,97.98
2023-03-16T03:46:37.681Z,97.73
2023-03-16T03:48:17.868Z,97.65
2023-03-16T03:49:58.267Z,97.49
2023-03-16T03:51:38.691Z,97.46
2023-03-16T03:53:19.107Z,97.6
2023-03-16T03:54:59.528Z,97.79
2023-03-16T03:56:39.907Z,97.78
2023-03-16T03:58:20.337Z,97.68
2023-03-16T04:00:00.661Z,97.52
2023-03-16T04:01:41.085Z,97.47
2023-03-16T04:03:21.633Z,97.16
2023-03-16T04:05:01.968Z,97.13
2023-03-16T04:06:42.392Z,97.17
2023-03-16T04:08:22.769Z,97.39
2023-03-16T04:10:03.207Z,97.52
2023-03-16T04:11:43.618Z,97.53
2023-03-16T04:13:23.994Z,97.36
2023-03-16T04:15:04.442Z,97.35
2023-03-16T04:16:45.117Z,97.34
2023-03-16T04:18:25.406Z,97.36
2023-03-16T04:20:05.844Z,97.49
2023-03-16T04:21:46.171Z,97.61
2023-03-16T04:23:26.512Z,97.57
2023-03-16T04:25:06.956Z,97.45
2023-03-16T04:26:47.424Z,97.26
2023-03-16T04:28:27.830Z,97.35
2023-03-16T04:30:08.182Z,97.13
2023-03-16T04:31:48.612Z,96.81
2023-03-16T04:33:29.002Z,96.72
2023-03-16T04:35:09.417Z,96.17
2023-03-16T04:36:49.852Z,95.85
2023-03-16T04:38:30.242Z,95.61
2023-03-16T04:40:11.066Z,95.79
2023-03-16T04:41:50.957Z,96.05
2023-03-16T04:43:31.364Z,95.92
2023-03-16T04:45:11.752Z,95.67
2023-03-16T04:46:52.121Z,95.83
2023-03-16T04:48:32.596Z,95.83
2023-03-16T04:50:13.027Z,95.75
2023-03-16T04:51:53.341Z,96.14
2023-03-16T04:53:33.721Z,96.06
2023-03-16T04:55:14.222Z,95.84
2023-03-16T04:56:54.666Z,95.83
2023-03-16T04:58:35.052Z,96.07
2023-03-16T05:00:15.448Z,96.09
2023-03-16T05:01:55.867Z,95.96
2023-03-16T05:03:36.238Z,95.97
2023-03-16T05:05:16.769Z,95.97
2023-03-16T05:06:57.070Z,95.81
2023-03-16T05:08:37.552Z,95.72
2023-03-16T05:10:17.985Z,95.81
2023-03-16T05:11:58.411Z,95.82
2023-03-16T05:13:38.700Z,95.7
2023-03-16T05:15:19.179Z,95.75
2023-03-16T05:16:59.560Z,95.78
2023-03-16T05:18:39.949Z,95.85
2023-03-16T05:20:20.375Z,95.94
2023-03-16T05:22:00.734Z,95.98
2023-03-16T05:23:41.076Z,95.98
2023-03-16T05:25:21.452Z,95.95
2023-03-16T05:27:01.961Z,95.92
2023-03-16T05:28:42.418Z,96.07
2023-03-16T05:30:22.835Z,96.13
2023-03-16T05:32:03.303Z,96.04
2023-03-16T05:33:43.699Z,96.19
2023-03-16T05:35:24.378Z,96.19
2023-03-16T05:37:04.472Z,96.19
2023-03-16T05:38:44.826Z,96.2
2023-03-16T05:40:25.225Z,96.19
2023-03-16T05:42:05.577Z,96.23
2023-03-16T05:43:45.956Z,96.26
2023-03-16T05:45:26.410Z,96.12
2023-03-16T05:47:06.901Z,96.14
2023-03-16T05:48:47.230Z,96.19
2023-03-16T05:50:27.859Z,96.14
2023-03-16T05:52:07.983Z,96.26
2023-03-16T05:53:48.368Z,96.34
2023-03-16T05:55:28.814Z,96.4
2023-03-16T05:57:09.166Z,96.49
2023-03-16T05:58:49.565Z,96.48
2023-03-16T06:00:30.462Z,96.29
2023-03-16T06:02:10.397Z,96.29
2023-03-16T06:03:50.808Z,96.15
2023-03-16T06:05:31.194Z,96.17
2023-03-16T06:07:11.550Z,96.03
2023-03-16T06:08:52.022Z,96.13
2023-03-16T06:10:32.419Z,96.08
2023-03-16T06:12:12.744Z,96.04
2023-03-16T06:13:53.070Z,96.05
2023-03-16T06:15:33.528Z,96.13
2023-03-16T06:17:14.011Z,96.08
2023-03-16T06:18:54.371Z,95.95
2023-03-16T06:20:34.800Z,95.8
2023-03-16T06:22:15.339Z,95.65
2023-03-16T06:23:55.726Z,95.57
2023-03-16T06:25:37.758Z,95.27
2023-03-16T06:27:16.601Z,94.92
2023-03-16T06:28:57.054Z,94.68
2023-03-16T06:30:37.478Z,94.23
2023-03-16T06:32:17.895Z,94.16
2023-03-16T06:33:58.364Z,93.66
2023-03-16T06:35:38.892Z,93.14
2023-03-16T06:37:19.272Z,92.29
2023-03-16T06:38:59.622Z,91.57
2023-03-16T06:40:40.088Z,91.16
2023-03-16T06:42:20.442Z,91.49
2023-03-16T06:44:00.884Z,91.45
2023-03-16T06:45:41.366Z,91.3
2023-03-16T06:47:21.696Z,91.11
2023-03-16T06:49:02.174Z,90.57
2023-03-16T06:50:42.550Z,89.76
2023-03-16T06:52:23.082Z,90.24
2023-03-16T06:54:03.362Z,90.18
2023-03-16T06:55:43.686Z,89.8
2023-03-16T06:57:23.976Z,89.31
2023-03-16T06:59:04.374Z,89.21
2023-03-16T07:00:44.819Z,88.77
2023-03-16T07:02:25.148Z,88.75
2023-03-16T07:04:05.549Z,88.3
2023-03-16T07:05:45.874Z,88.32
2023-03-16T07:07:26.256Z,88.31
2023-03-16T07:09:06.685Z,88.07
2023-03-16T07:10:47.043Z,87.74
2023-03-16T07:12:27.470Z,87.94
2023-03-16T07:14:07.885Z,87.34
2023-03-16T07:15:48.274Z,87.33
2023-03-16T07:17:28.656Z,87.32
2023-03-16T07:19:09.004Z,86.93
2023-03-16T07:20:49.399Z,86.55
2023-03-16T07:22:29.827Z,86.61
2023-03-16T07:24:10.162Z,86.35
2023-03-16T07:25:50.537Z,86.03
2023-03-16T07:27:30.919Z,85.32
2023-03-16T07:33:56.703Z,0
2023-03-16T07:35:37.059Z,84.3
2023-03-16T07:37:21.762Z,84
2023-03-16T07:38:57.898Z,83.64
2023-03-16T07:40:38.210Z,83.76
2023-03-16T07:42:18.577Z,83.01
2023-03-16T07:43:59.030Z,81.9
2023-03-16T07:45:39.439Z,81.35
2023-03-16T07:47:19.868Z,81.57
2023-03-16T07:49:00.350Z,79.7
2023-03-16T07:50:40.774Z,79.09
2023-03-16T07:52:21.204Z,79.25
2023-03-16T07:54:01.612Z,79.47
2023-03-16T07:55:42.040Z,79.24
2023-03-16T07:57:22.443Z,78.63
2023-03-16T07:59:02.810Z,77.65
2023-03-16T08:00:43.184Z,76.53
2023-03-16T08:02:23.650Z,76.72
2023-03-16T08:04:04.127Z,76.51
2023-03-16T08:05:44.347Z,75.69
2023-03-16T08:07:24.763Z,74.63
2023-03-16T08:09:05.195Z,74.47
2023-03-16T08:10:45.623Z,74.29
2023-03-16T08:12:26.098Z,74.48
2023-03-16T08:14:06.497Z,72.48
2023-03-16T08:15:47.005Z,72.64
2023-03-16T08:17:27.362Z,72.33
2023-03-16T08:19:07.737Z,72.3
2023-03-16T08:20:48.166Z,71.94
2023-03-16T08:22:28.570Z,72.18
2023-03-16T08:24:08.903Z,70.6
2023-03-16T08:25:49.329Z,69.41
2023-03-16T08:27:29.765Z,67.48
2023-03-16T08:29:10.236Z,68.71
2023-03-16T08:30:50.593Z,67.58
2023-03-16T08:32:30.929Z,67.3
2023-03-16T08:34:11.288Z,67.08
2023-03-16T08:35:51.777Z,67.35
2023-03-16T08:37:32.131Z,66
2023-03-16T08:39:12.464Z,65.98
2023-03-16T08:40:42.346Z,0
2023-03-16T08:42:22.710Z,66.46
2023-03-16T08:44:03.226Z,64
2023-03-16T08:45:43.480Z,64.84
2023-03-16T08:47:23.794Z,64.99
2023-03-16T08:49:04.067Z,63.92
2023-03-16T08:50:44.390Z,66.3
2023-03-16T08:52:24.869Z,65.49
2023-03-16T08:54:05.262Z,64.46
2023-03-16T08:55:45.678Z,65.26
2023-03-16T08:57:26.066Z,62.63
2023-03-16T08:59:07.769Z,62.13
2023-03-16T09:00:49.080Z,60.83
2023-03-16T09:02:27.269Z,61.46
2023-03-16T09:04:07.822Z,59.69
2023-03-16T09:05:48.177Z,60.67
2023-03-16T09:07:28.647Z,58.93
2023-03-16T09:09:09.111Z,58.2
2023-03-16T09:10:49.528Z,57.78
2023-03-16T09:12:29.967Z,56.85
2023-03-16T09:14:10.298Z,56.84
2023-03-16T09:15:50.863Z,55.64
2023-03-16T09:17:31.124Z,55.22
2023-03-16T09:19:11.500Z,54.91
2023-03-16T09:20:51.998Z,53.27
2023-03-16T09:22:32.406Z,53.68
2023-03-16T09:24:12.837Z,54.38
2023-03-16T09:25:53.314Z,53.74
2023-03-16T09:27:33.659Z,52.64
2023-03-16T09:29:14.183Z,52.86
2023-03-16T09:30:54.596Z,51.87
2023-03-16T09:32:34.962Z,54.03
2023-03-16T09:34:15.298Z,51.86
2023-03-16T09:35:55.777Z,51.73
2023-03-16T09:37:45.122Z,51.13
2023-03-16T09:39:16.560Z,51.57
2023-03-16T09:40:56.890Z,50.66
2023-03-16T09:42:37.296Z,51.15
2023-03-16T09:44:17.665Z,49.9
2023-03-16T09:45:58.194Z,50.33
2023-03-16T09:47:38.560Z,49.8
2023-03-16T09:49:19.026Z,49.75
2023-03-16T09:50:59.557Z,49.7
2023-03-16T09:52:39.842Z,49.2
2023-03-16T09:54:20.287Z,49.29
2023-03-16T09:56:00.722Z,49.53
2023-03-16T09:57:41.107Z,48.34
2023-03-16T09:59:21.430Z,49.06
2023-03-16T10:01:01.891Z,48.11
2023-03-16T10:02:42.241Z,47.39
2023-03-16T10:04:22.785Z,47.52
2023-03-16T10:06:03.057Z,46.96
2023-03-16T10:07:43.391Z,48.72
2023-03-16T10:09:23.905Z,48.13
2023-03-16T10:11:04.340Z,47.55
2023-03-16T10:12:44.689Z,46.35
2023-03-16T10:14:25.134Z,46.24
2023-03-16T10:16:05.660Z,45.65
2023-03-16T10:17:45.945Z,47.83
2023-03-16T10:19:26.410Z,47.33
2023-03-16T10:21:06.800Z,45.84
2023-03-16T10:22:47.367Z,44.65
2023-03-16T10:24:27.849Z,45.11
2023-03-16T10:26:08.199Z,45.15
2023-03-16T10:27:48.574Z,45.59
2023-03-16T10:29:28.998Z,45.08
2023-03-16T10:31:09.406Z,45.45
2023-03-16T10:32:49.822Z,45.7
2023-03-16T10:34:30.146Z,45.85
2023-03-16T10:36:10.585Z,46.07
2023-03-16T10:37:50.973Z,46.68
2023-03-16T10:39:31.337Z,46.68
2023-03-16T10:41:11.807Z,46.14
2023-03-16T10:42:52.143Z,45.22
2023-03-16T10:44:32.678Z,45.76
2023-03-16T10:46:14.895Z,45.03
2023-03-16T10:47:53.542Z,44.83
2023-03-16T10:49:34.396Z,43.89
2023-03-16T10:51:14.278Z,45.6
2023-03-16T10:52:54.737Z,44.02
2023-03-16T10:54:35.088Z,42.75
2023-03-16T10:56:15.512Z,43.61
2023-03-16T10:57:55.971Z,43.87
2023-03-16T10:59:36.407Z,43.6
2023-03-16T11:01:16.858Z,44.46
2023-03-16T11:02:57.271Z,45.5
2023-03-16T11:04:37.676Z,44.93
2023-03-16T11:06:18.089Z,45.16
2023-03-16T11:07:58.516Z,45.77
2023-03-16T11:09:38.851Z,44.7
2023-03-16T11:11:19.263Z,45.56
2023-03-16T11:13:02.340Z,44.09
2023-03-16T11:14:40.087Z,42.19
2023-03-16T11:16:20.605Z,42.35
2023-03-16T11:18:00.953Z,42.88
2023-03-16T11:19:41.198Z,42.62
2023-03-16T11:21:21.638Z,42.67
2023-03-16T11:23:02.105Z,42.62
2023-03-16T11:24:42.489Z,41.63
2023-03-16T11:26:22.881Z,42.1
2023-03-16T11:28:03.295Z,42.44
2023-03-16T11:29:43.678Z,42.2
2023-03-16T11:31:24.145Z,41.49
2023-03-16T11:33:04.598Z,42.41
2023-03-16T11:34:44.902Z,42.05
2023-03-16T11:36:25.450Z,41.92
2023-03-16T11:38:05.715Z,39.72
2023-03-16T11:39:46.121Z,41.1
2023-03-16T11:41:26.487Z,39.91
2023-03-16T11:43:06.904Z,39.83
2023-03-16T11:44:48.835Z,39.21
2023-03-16T11:46:27.816Z,39.77
2023-03-16T11:48:08.138Z,40.07
2023-03-16T11:49:48.490Z,39.42
2023-03-16T11:51:28.773Z,39.68
2023-03-16T11:53:09.044Z,38.29
2023-03-16T11:54:49.417Z,40.08
2023-03-16T11:56:29.877Z,39.02
2023-03-16T11:58:10.213Z,38.57
2023-03-16T12:00:00.562Z,39.04
2023-03-16T12:01:31.039Z,38.9
2023-03-16T12:03:11.443Z,40.47
2023-03-16T12:04:51.744Z,40.33
2023-03-16T12:06:32.261Z,40.29
2023-03-16T12:08:12.671Z,39.78
2023-03-16T12:09:53.181Z,39.31
2023-03-16T12:11:33.582Z,39.3
2023-03-16T12:13:14.051Z,37.12
2023-03-16T12:14:54.388Z,37.56
2023-03-16T12:16:48.429Z,38.53
2023-03-16T12:18:15.178Z,39.02
2023-03-16T12:19:55.679Z,38.79
2023-03-16T12:21:36.051Z,35.57
2023-03-16T12:23:16.422Z,36.02
2023-03-16T12:24:56.723Z,37.98
2023-03-16T12:26:37.147Z,36.95
2023-03-16T12:28:17.544Z,35.57
2023-03-16T12:29:57.945Z,35.04
2023-03-16T12:31:38.379Z,35.7
2023-03-16T12:33:18.748Z,36.26
2023-03-16T12:34:59.118Z,35.33
2023-03-16T12:36:39.498Z,35.79
2023-03-16T12:38:19.882Z,36.91
2023-03-16T12:40:00.270Z,36.84
2023-03-16T12:41:40.678Z,37.69
2023-03-16T12:43:21.089Z,37.97
2023-03-16T12:45:01.504Z,36.8
2023-03-16T12:46:41.992Z,37.64
2023-03-16T12:48:22.355Z,38.13
2023-03-16T12:50:02.761Z,37.57
2023-03-16T12:51:43.234Z,38.29
2023-03-16T12:53:23.639Z,37.56
2023-03-16T12:55:03.954Z,37.8
2023-03-16T12:56:44.233Z,38.28
2023-03-16T12:58:24.488Z,39.48
2023-03-16T13:00:04.797Z,37.86
2023-03-16T13:01:45.187Z,37.93
2023-03-16T13:03:25.557Z,36.68
2023-03-16T13:05:05.951Z,35.86
2023-03-16T13:06:46.332Z,36.29
2023-03-16T13:08:26.710Z,36.85
2023-03-16T13:10:07.132Z,37.87
2023-03-16T13:11:47.566Z,37.25
2023-03-16T13:13:28.035Z,37.76
2023-03-16T13:15:08.432Z,38.37
2023-03-16T13:16:49.014Z,37.63
2023-03-16T13:18:29.338Z,39.65
2023-03-16T13:20:11.835Z,38.46
2023-03-16T13:21:50.138Z,38.33
2023-03-16T13:23:30.592Z,36.53
2023-03-16T13:25:10.997Z,37.13
2023-03-16T13:26:51.284Z,36.47
2023-03-16T13:28:31.598Z,36.8
2023-03-16T13:30:12.104Z,36.36
2023-03-16T13:31:52.613Z,36.2
2023-03-16T13:33:32.952Z,35.82
2023-03-16T13:35:13.326Z,36.78
2023-03-16T13:36:53.825Z,36.33
2023-03-16T13:38:34.289Z,36.21
2023-03-16T13:40:14.687Z,36.5
2023-03-16T13:41:55.103Z,37.1
2023-03-16T13:43:35.550Z,36.75
2023-03-16T13:45:15.973Z,35.91
2023-03-16T13:46:56.402Z,36.6
2023-03-16T13:48:36.817Z,36.32
2023-03-16T13:50:17.170Z,37.85
2023-03-16T13:51:57.628Z,36.31
2023-03-16T13:53:37.950Z,35.88
2023-03-16T13:55:18.333Z,35.22
2023-03-16T13:56:58.694Z,35.31
2023-03-16T13:58:39.162Z,35.26
2023-03-16T14:00:19.548Z,36.45
2023-03-16T14:01:59.898Z,36.6
2023-03-16T14:03:40.288Z,37.04
2023-03-16T14:05:20.620Z,38.23
2023-03-16T14:07:01.032Z,37.76
2023-03-16T14:08:41.463Z,38.95
2023-03-16T14:10:21.917Z,38.55
2023-03-16T14:12:02.459Z,38.45
2023-03-16T14:13:42.820Z,39.48
2023-03-16T14:15:23.247Z,39.56
2023-03-16T14:17:03.681Z,40.23
2023-03-16T14:18:44.096Z,39.25
2023-03-16T14:20:24.442Z,40.69
2023-03-16T14:22:04.839Z,39.42
2023-03-16T14:23:45.187Z,38.82
2023-03-16T14:25:25.476Z,40.24
2023-03-16T14:27:05.940Z,39.93
2023-03-16T14:28:46.355Z,40.15
2023-03-16T14:30:26.790Z,40.25
2023-03-16T14:32:07.197Z,40.43
2023-03-16T14:33:47.527Z,41.2
2023-03-16T14:35:28.244Z,40.85
2023-03-16T14:37:08.303Z,40.73
2023-03-16T14:38:48.720Z,38.69
2023-03-16T14:40:29.131Z,37.4
2023-03-16T14:42:09.555Z,37.26
2023-03-16T14:43:49.928Z,37.78
2023-03-16T14:45:30.707Z,37.43
2023-03-16T14:47:10.613Z,36.33
2023-03-16T14:48:51.011Z,36.23
2023-03-16T14:50:31.412Z,36.35
2023-03-16T14:52:11.836Z,37.49
2023-03-16T14:53:52.230Z,37.92
2023-03-16T14:55:32.605Z,38.16
2023-03-16T14:57:12.944Z,38.2
2023-03-16T14:58:53.340Z,38.76
2023-03-16T15:00:42.684Z,38.96
2023-03-16T15:02:14.184Z,39.04
2023-03-16T15:03:54.613Z,39.28
2023-03-16T15:05:36.318Z,39
2023-03-16T15:07:15.432Z,39.67
2023-03-16T15:08:55.808Z,37.75
2023-03-16T15:10:36.294Z,38.27
2023-03-16T15:12:16.672Z,38.86
2023-03-16T15:13:56.995Z,38.94
2023-03-16T15:15:37.432Z,38.31
2023-03-16T15:17:17.869Z,38.43
2023-03-16T15:18:58.272Z,38.44
2023-03-16T15:20:38.668Z,38.8
2023-03-16T15:22:19.129Z,38.49
2023-03-16T15:23:59.547Z,39.21
2023-03-16T15:25:39.919Z,39.62
2023-03-16T15:27:20.338Z,40.13
2023-03-16T15:29:00.794Z,40.47
2023-03-16T15:30:41.137Z,40.03
2023-03-16T15:32:21.582Z,40.04
2023-03-16T15:34:02.036Z,40.53
2023-03-16T15:35:42.400Z,40.36
2023-03-16T15:37:22.683Z,41.78
2023-03-16T15:39:03.078Z,41.18
2023-03-16T15:40:43.428Z,41.35
2023-03-16T15:42:23.770Z,41.92
2023-03-16T15:44:04.193Z,41.98
2023-03-16T15:45:44.556Z,42.37
2023-03-16T15:47:24.909Z,42.5
2023-03-16T15:49:05.287Z,42.8
2023-03-16T15:50:45.672Z,43.24
2023-03-16T15:52:26.095Z,42.35
2023-03-16T15:54:06.495Z,42.59
2023-03-16T15:55:46.892Z,42.97
2023-03-16T15:57:27.228Z,42.93
2023-03-16T15:59:09.232Z,43.05
2023-03-16T16:00:48.127Z,42.73
2023-03-16T16:02:28.475Z,43.58
2023-03-16T16:04:08.888Z,44.17
2023-03-16T16:05:49.273Z,44.26
2023-03-16T16:07:29.697Z,44.14
2023-03-16T16:09:10.080Z,43.91
2023-03-16T16:10:50.477Z,44.08
2023-03-16T16:12:30.846Z,44.6
2023-03-16T16:14:11.277Z,44.68
2023-03-16T16:15:53.096Z,45.19
2023-03-16T16:17:48.001Z,44.31
2023-03-16T16:19:12.543Z,44.51
2023-03-16T16:20:52.985Z,44.55
2023-03-16T16:22:33.337Z,45.24
2023-03-16T16:24:13.722Z,45.07
2023-03-16T16:25:54.162Z,45.06
2023-03-16T16:27:34.602Z,45.71
2023-03-16T16:29:15.032Z,47.08
2023-03-16T16:30:55.432Z,46.27
2023-03-16T16:32:35.881Z,46.41
2023-03-16T16:34:16.208Z,47.75
2023-03-16T16:35:56.644Z,46.84
2023-03-16T16:37:36.909Z,46.58
2023-03-16T16:39:17.325Z,47.47
2023-03-16T16:40:57.713Z,48.52
2023-03-16T16:42:38.188Z,48.53
2023-03-16T16:44:18.680Z,48.54
2023-03-16T16:45:59.122Z,48.4
2023-03-16T16:47:39.520Z,48.31
2023-03-16T16:49:19.942Z,48.29
2023-03-16T16:51:00.217Z,48.71
2023-03-16T16:52:40.698Z,48.66
2023-03-16T16:54:21.077Z,49.36
2023-03-16T16:56:01.495Z,49.43
2023-03-16T16:57:41.872Z,49.9
2023-03-16T16:59:22.288Z,50.33
2023-03-16T17:01:02.692Z,50.66
2023-03-16T17:02:43.031Z,50.82
2023-03-16T17:04:23.577Z,51.51
2023-03-16T17:06:03.878Z,52.51
2023-03-16T17:07:44.326Z,52.7
2023-03-16T17:09:24.672Z,52.47
2023-03-16T17:11:05.119Z,52.68
2023-03-16T17:12:45.575Z,52.85
2023-03-16T17:14:29.105Z,53.61
2023-03-16T17:16:06.454Z,54.15
2023-03-16T17:17:46.899Z,54.22
2023-03-16T17:19:27.349Z,54.51
2023-03-16T17:21:07.612Z,54.87
2023-03-16T17:22:47.997Z,55.29
2023-03-16T17:24:28.419Z,55.67
2023-03-16T17:26:08.823Z,55.98
2023-03-16T17:27:49.301Z,56.22
2023-03-16T17:29:29.685Z,56.33
2023-03-16T17:31:10.176Z,56.55
2023-03-16T17:32:50.502Z,56.55
2023-03-16T17:34:30.798Z,56.82
2023-03-16T17:36:11.172Z,56.98
2023-03-16T17:37:51.553Z,57.06
2023-03-16T17:39:31.880Z,56.73
2023-03-16T17:41:12.352Z,56.96
2023-03-16T17:42:52.860Z,57.18
2023-03-16T17:44:33.324Z,57.1
2023-03-16T17:46:17.155Z,57.16
2023-03-16T17:47:54.108Z,57.45
2023-03-16T17:49:34.461Z,57.42
2023-03-16T17:51:14.819Z,57.5
2023-03-16T17:52:55.283Z,57.78
2023-03-16T17:54:35.673Z,58.07
2023-03-16T17:56:16.135Z,58.45
2023-03-16T17:57:56.470Z,58.46
2023-03-16T17:59:36.746Z,58.51
2023-03-16T18:01:17.069Z,58.66
2023-03-16T18:02:57.416Z,58.96
2023-03-16T18:04:37.853Z,59.26
2023-03-16T18:06:18.251Z,59.64
2023-03-16T18:07:58.742Z,59.46
2023-03-16T18:09:39.150Z,59.8
2023-03-16T18:11:19.594Z,59.9
2023-03-16T18:13:00.017Z,59.88
2023-03-16T18:14:40.476Z,59.99
2023-03-16T18:16:20.965Z,59.86
2023-03-16T18:18:01.319Z,59.77
2023-03-16T18:19:41.879Z,60.1
2023-03-16T18:21:22.247Z,59.89
2023-03-16T18:23:02.625Z,59.85
2023-03-16T18:24:42.909Z,60.09
2023-03-16T18:26:23.341Z,60.25
2023-03-16T18:28:03.720Z,60.36
2023-03-16T18:29:44.125Z,60.64
2023-03-16T18:31:24.448Z,60.79
2023-03-16T18:33:04.834Z,60.97
2023-03-16T18:34:45.100Z,61
2023-03-16T18:36:25.428Z,60.87
2023-03-16T18:38:05.856Z,61.05
2023-03-16T18:39:46.214Z,61.09
2023-03-16T18:41:26.653Z,61.42
2023-03-16T18:43:07.093Z,61.55
2023-03-16T18:44:47.998Z,61.6
2023-03-16T18:46:28.147Z,61.75
2023-03-16T18:48:08.540Z,61.86
2023-03-16T18:49:49.072Z,62.15
2023-03-16T18:51:29.434Z,62.39
2023-03-16T18:53:09.863Z,62.56
2023-03-16T18:54:50.254Z,62.59
2023-03-16T18:56:30.729Z,63.02
2023-03-16T18:58:11.170Z,62.96
2023-03-16T18:59:51.579Z,63.08
2023-03-16T19:01:32.001Z,63.25
2023-03-16T19:03:15.372Z,63.57
2023-03-16T19:04:52.663Z,63.62
2023-03-16T19:06:32.990Z,63.34
2023-03-16T19:08:13.393Z,63.17
2023-03-16T19:09:53.710Z,63.38
2023-03-16T19:11:34.159Z,63.59
2023-03-16T19:13:14.558Z,63.43
2023-03-16T19:14:54.896Z,63.36
2023-03-16T19:16:35.374Z,63.57
2023-03-16T19:18:15.726Z,63.9
2023-03-16T19:19:56.156Z,63.77
2023-03-16T19:21:36.558Z,64.08
2023-03-16T19:23:16.957Z,64.17
2023-03-16T19:25:00.496Z,64.14
2023-03-16T19:26:37.838Z,64.54
2023-03-16T19:28:18.308Z,64.42
2023-03-16T19:29:58.788Z,64.32
2023-03-16T19:31:39.228Z,64.57
2023-03-16T19:33:19.549Z,64.49
2023-03-16T19:35:00.036Z,64.63
2023-03-16T19:36:40.483Z,64.61
2023-03-16T19:38:20.840Z,64.68
2023-03-16T19:40:01.292Z,64.76
2023-03-16T19:41:41.620Z,65.03
2023-03-16T19:43:22.013Z,65.31
2023-03-16T19:45:02.380Z,65.06
2023-03-16T19:46:42.849Z,65.17
2023-03-16T19:48:23.337Z,65.37
2023-03-16T19:50:03.694Z,65.61
2023-03-16T19:51:44.075Z,65.8
2023-03-16T19:53:24.485Z,65.99
2023-03-16T19:55:04.945Z,66.16
2023-03-16T19:56:45.447Z,66.47
2023-03-16T19:58:28.904Z,66.57
2023-03-16T20:00:06.264Z,66.49
2023-03-16T20:01:46.671Z,66.76
2023-03-16T20:03:27.126Z,67.25
2023-03-16T20:05:07.487Z,67.48
2023-03-16T20:06:49.856Z,67.3
2023-03-16T20:08:28.327Z,67.25
2023-03-16T20:10:08.867Z,66.92
2023-03-16T20:11:49.149Z,66.74
2023-03-16T20:13:29.544Z,66.57
2023-03-16T20:15:09.904Z,66.45
2023-03-16T20:16:50.349Z,66.42
2023-03-16T20:18:30.692Z,66.51
2023-03-16T20:20:11.080Z,66.6
2023-03-16T20:21:51.467Z,66.12
2023-03-16T20:23:31.889Z,66.27
2023-03-16T20:25:12.277Z,66.23
2023-03-16T20:26:52.670Z,66.24
2023-03-16T20:28:33.047Z,66.15
2023-03-16T20:30:13.487Z,66.32
2023-03-16T20:31:53.917Z,66.15
2023-03-16T20:33:34.359Z,66.23
2023-03-16T20:35:14.776Z,66.04
2023-03-16T20:36:55.210Z,65.73
2023-03-16T20:38:35.681Z,65.48
2023-03-16T20:40:15.984Z,65.75
2023-03-16T20:41:56.305Z,65.83
2023-03-16T20:43:36.734Z,65.72
2023-03-16T20:45:17.044Z,65.97
2023-03-16T20:46:57.334Z,66.07
2023-03-16T20:48:37.656Z,66.31
2023-03-16T20:50:18.093Z,66.41
2023-03-16T20:51:58.545Z,66.85
2023-03-16T20:53:39.001Z,67.02
2023-03-16T20:55:19.436Z,67.09
2023-03-16T20:56:59.880Z,67.3
2023-03-16T20:58:40.189Z,67.39
2023-03-16T21:00:20.631Z,67.33
2023-03-16T21:02:01.029Z,67.72
2023-03-16T21:03:41.431Z,68.22
2023-03-16T21:05:21.842Z,68.42
2023-03-16T21:07:02.258Z,68.82
2023-03-16T21:08:42.579Z,68.93
2023-03-16T21:10:23.686Z,69.32
2023-03-16T21:12:03.451Z,69.76
2023-03-16T21:13:43.828Z,70.33
2023-03-16T21:15:24.239Z,70.73
2023-03-16T21:17:04.637Z,70.92
2023-03-16T21:18:45.006Z,71.04
2023-03-16T21:20:25.386Z,70.77
2023-03-16T21:22:05.785Z,70.53
2023-03-16T21:23:46.172Z,70.53
2023-03-16T21:25:26.602Z,70.66
2023-03-16T21:27:07.007Z,70.72
2023-03-16T21:28:47.373Z,70.98
2023-03-16T21:30:27.922Z,71.18
2023-03-16T21:32:08.334Z,71.19
2023-03-16T21:33:48.781Z,71.34
2023-03-16T21:35:29.495Z,71.66
2023-03-16T21:37:09.673Z,71.92
2023-03-16T21:38:50.047Z,71.98
2023-03-16T21:40:30.788Z,72.24
2023-03-16T21:42:10.868Z,72.66
2023-03-16T21:43:51.260Z,72.36